< < Back
Terminal Aerodrome Forecast


Current Version              Previous Versions:   1  2  3  4  5  6  7  8  9  

Terminal Aerodrome Forecast

259
FTUS42 KFFC 241734
TAFPDK
TAF
KPDK 241734Z 2418/2518 35004KT P6SM SCT060
     FM242200 08004KT P6SM SCT050
     FM250000 03003KT P6SM FEW050
     FM250200 VRB03KT P6SM FEW250
     FM251600 09005KT P6SM FEW045=

Latest METAR

882
SAUS70 KWBC 250000 RRF
MTRPDK
METAR KPDK 242353Z 00000KT 10SM CLR 28/17 A3004 RMK AO2 SLP156 T02830172
10339 20272 55001


USA.gov is the U.S. government's official web portal to all federal, state and local government web resources and services.